Weather at Zürich Airport

Public forecast

Using degrees Celsius for public forecast. Weather courtesy of forecast.io.

Current aviation weather report (METAR) for Zürich Airport

Retrieved 2021/07/29 07:50 UTC (50 minutes ago):

LSZH 290750Z 28005KT 220V320 9999 FEW016 SCT035 20/14 Q1018 NOSIG

Aviation forecast (TAF) for Zürich Airport

Retrieved 2021/07/29 09:34 UTC (0 seconds ago):

TAF LSZH 290825Z 2909/3015 VRB02KT 9999 FEW015 SCT040 TX25/2915Z TN13/3004Z TX27/3014Z PROB40 TEMPO 2910/2917 28008KT BECMG 2915/2918 CAVOK BECMG 3003/3006 9999 SCT060 PROB30 TEMPO 3003/3013 FEW050TCU TEMPO 3013/3015 26015G25KT TSRA SCT050CB PROB30 TEMPO 3013/3015 26020G38KT 3000 +TSRAGR BKN050CB